Time;durP1;ratioP1;P1;durP2;ratioP2;P2;SDS_P1;SDS_P2;PMS_P1;PMS_P2;Temp;Humidity;BMP_temperature;BMP_pressure;BME280_temperature;BME280_humidity;BME280_pressure;Samples;Min_cycle;Max_cycle;Signal;HPM_P1;HPM_P2
2023/01/03 00:01:17;;;;;;;1.10;1.00;;;10.50;99.90;;;;;;4986830;28;20468;-46
2023/01/03 00:03:46;;;;;;;1.20;1.10;;;10.50;99.90;;;;;;4994150;28;20484;-47
2023/01/03 00:06:19;;;;;;;1.20;1.10;;;10.50;99.90;;;;;;4990725;28;20519;-47
2023/01/03 00:08:48;;;;;;;1.00;0.90;;;10.50;99.90;;;;;;4990044;28;20517;-47
2023/01/03 00:11:19;;;;;;;1.20;1.07;;;10.50;99.90;;;;;;4978332;28;20714;-48
2023/01/03 00:14:07;;;;;;;1.10;0.83;;;10.50;99.90;;;;;;5000578;28;20457;-48
2023/01/03 00:16:35;;;;;;;1.20;1.03;;;10.50;99.90;;;;;;4987293;28;20827;-48
2023/01/03 00:19:06;;;;;;;1.10;1.00;;;10.50;99.90;;;;;;4989001;28;20453;-46
2023/01/03 00:21:36;;;;;;;3.17;0.90;;;10.50;99.90;;;;;;4988147;28;20472;-47
2023/01/03 00:24:06;;;;;;;1.10;1.00;;;10.50;99.90;;;;;;5003998;28;20445;-47
2023/01/03 00:26:35;;;;;;;1.40;1.20;;;10.50;99.90;;;;;;4984670;28;20473;-47
2023/01/03 00:29:04;;;;;;;1.30;0.97;;;10.50;99.90;;;;;;5004578;28;20897;-47
2023/01/03 00:31:34;;;;;;;0.97;0.87;;;10.50;99.90;;;;;;4990400;28;20452;-47
2023/01/03 00:34:02;;;;;;;0.90;0.80;;;10.50;99.90;;;;;;5001905;28;20465;-47
2023/01/03 00:36:31;;;;;;;1.10;1.00;;;10.40;99.90;;;;;;4998415;28;20453;-47
2023/01/03 00:39:01;;;;;;;1.43;0.90;;;10.40;99.90;;;;;;4989585;28;20484;-47
2023/01/03 00:41:30;;;;;;;0.80;0.70;;;10.40;99.90;;;;;;4992130;28;20868;-45
2023/01/03 00:43:59;;;;;;;0.97;0.90;;;10.50;99.90;;;;;;4984024;28;20465;-47
2023/01/03 00:46:27;;;;;;;1.00;0.90;;;10.40;99.90;;;;;;4989837;28;20488;-47
2023/01/03 00:48:56;;;;;;;1.20;1.10;;;10.40;99.90;;;;;;4990878;28;20492;-48
2023/01/03 00:51:26;;;;;;;2.27;1.10;;;10.40;99.90;;;;;;4998889;28;20448;-47
2023/01/03 00:53:56;;;;;;;1.10;1.00;;;10.40;99.90;;;;;;4998800;28;20490;-49
2023/01/03 00:56:28;;;;;;;0.70;0.70;;;10.40;99.90;;;;;;4999306;28;20445;-47
2023/01/03 00:58:58;;;;;;;0.90;0.90;;;10.40;99.90;;;;;;4980600;28;20492;-49
2023/01/03 01:01:28;;;;;;;1.20;0.87;;;10.40;99.90;;;;;;4994667;28;20449;-48
2023/01/03 01:04:00;;;;;;;1.37;0.80;;;10.40;99.90;;;;;;4975895;28;20516;-49
2023/01/03 01:06:30;;;;;;;1.23;0.80;;;10.40;99.90;;;;;;4991659;28;20504;-47
2023/01/03 01:09:01;;;;;;;1.03;0.93;;;10.40;99.90;;;;;;4985428;28;20473;-47
2023/01/03 01:11:32;;;;;;;1.27;1.17;;;10.40;99.90;;;;;;4991793;28;20463;-48
2023/01/03 01:14:00;;;;;;;0.70;0.70;;;10.40;99.90;;;;;;5004804;28;20491;-47
2023/01/03 01:16:32;;;;;;;1.23;0.83;;;10.40;99.90;;;;;;4991495;28;20471;-47
2023/01/03 01:19:01;;;;;;;1.17;0.90;;;10.40;99.90;;;;;;4998176;28;20844;-48
2023/01/03 01:21:30;;;;;;;1.30;1.20;;;10.40;99.90;;;;;;4988768;28;20677;-48
2023/01/03 01:24:00;;;;;;;1.13;0.93;;;10.40;99.90;;;;;;4994545;28;20994;-48
2023/01/03 01:26:28;;;;;;;0.70;0.70;;;10.40;99.90;;;;;;4990568;28;20433;-48
2023/01/03 01:28:58;;;;;;;1.53;0.80;;;10.40;99.90;;;;;;4989319;28;20469;-47
2023/01/03 01:31:27;;;;;;;1.10;1.00;;;10.40;99.90;;;;;;5001523;28;20453;-48
2023/01/03 01:33:56;;;;;;;1.10;0.87;;;10.40;99.90;;;;;;4979601;28;20476;-46
2023/01/03 01:36:26;;;;;;;1.27;1.00;;;10.40;99.90;;;;;;4997488;28;21017;-47
2023/01/03 01:38:56;;;;;;;1.07;0.97;;;10.40;99.90;;;;;;4983123;28;20488;-48
2023/01/03 01:44:41;;;;;;;0.70;0.60;;;10.40;99.90;;;;;;4987972;28;20521;-46
2023/01/03 01:47:14;;;;;;;1.10;0.97;;;10.40;99.90;;;;;;4994802;28;21068;-48
2023/01/03 01:49:44;;;;;;;1.20;1.13;;;10.40;99.90;;;;;;4982813;28;20459;-46
2023/01/03 01:52:15;;;;;;;1.27;1.00;;;10.30;99.90;;;;;;4990921;28;20554;-48
2023/01/03 01:54:43;;;;;;;1.50;1.10;;;10.30;99.90;;;;;;4982300;28;20458;-47
2023/01/03 01:57:16;;;;;;;1.03;0.90;;;10.30;99.90;;;;;;4987643;28;20451;-47
2023/01/03 01:59:46;;;;;;;1.37;1.03;;;10.30;99.90;;;;;;4978354;28;20851;-49
2023/01/03 02:02:19;;;;;;;4.43;1.10;;;10.30;99.90;;;;;;4984869;28;20465;-47
2023/01/03 02:04:52;;;;;;;0.90;0.90;;;10.30;99.90;;;;;;4982815;28;20437;-46
2023/01/03 02:07:22;;;;;;;0.90;0.80;;;10.30;99.90;;;;;;4992766;28;20492;-48
2023/01/03 02:09:54;;;;;;;1.90;0.90;;;10.30;99.90;;;;;;4987313;28;20546;-47
2023/01/03 02:15:52;;;;;;;2.50;1.27;;;10.40;99.90;;;;;;5004761;28;20956;-49
2023/01/03 02:18:42;;;;;;;1.13;0.97;;;10.30;99.90;;;;;;4989147;28;20524;-49
2023/01/03 02:21:48;;;;;;;1.03;0.93;;;10.30;99.90;;;;;;4982461;28;20429;-47
2023/01/03 02:24:58;;;;;;;0.70;0.70;;;10.30;99.90;;;;;;5001244;28;21165;-47
2023/01/03 02:28:04;;;;;;;1.20;0.80;;;10.30;99.90;;;;;;4988305;28;20858;-48
2023/01/03 02:30:38;;;;;;;0.90;0.90;;;10.30;99.90;;;;;;4990730;28;20458;-46
2023/01/03 02:33:18;;;;;;;2.70;1.00;;;10.30;99.90;;;;;;4986451;28;20503;-47
2023/01/03 02:36:00;;;;;;;0.90;0.73;;;10.30;99.90;;;;;;4987629;28;20496;-47
2023/01/03 02:38:39;;;;;;;0.93;0.80;;;10.30;99.90;;;;;;4998112;28;20486;-47
2023/01/03 02:41:11;;;;;;;0.80;0.80;;;10.30;99.90;;;;;;4992185;28;21016;-47
2023/01/03 02:43:46;;;;;;;0.90;0.70;;;10.30;99.90;;;;;;4990764;28;20465;-48
2023/01/03 02:46:23;;;;;;;1.00;0.80;;;10.30;99.90;;;;;;4992395;28;20452;-46
2023/01/03 02:48:55;;;;;;;0.90;0.83;;;10.30;99.90;;;;;;4987569;28;20485;-49
2023/01/03 02:51:30;;;;;;;0.80;0.80;;;10.30;99.90;;;;;;4991142;28;20449;-48
2023/01/03 02:54:00;;;;;;;0.93;0.93;;;10.30;99.90;;;;;;4999160;28;20995;-47
2023/01/03 02:56:35;;;;;;;1.13;1.03;;;10.30;99.90;;;;;;5004785;28;20436;-46
2023/01/03 02:59:08;;;;;;;0.70;0.70;;;10.30;99.90;;;;;;5005961;28;20457;-47
2023/01/03 03:01:43;;;;;;;0.80;0.70;;;10.30;99.90;;;;;;4984686;28;20448;-47
2023/01/03 03:04:13;;;;;;;1.17;0.97;;;10.20;99.90;;;;;;4996696;28;20463;-50
2023/01/03 03:06:49;;;;;;;1.83;1.00;;;10.20;99.90;;;;;;4986043;28;20533;-47
2023/01/03 03:09:18;;;;;;;1.00;0.90;;;10.20;99.90;;;;;;4990529;28;20841;-47
2023/01/03 03:14:39;;;;;;;1.23;0.70;;;10.20;99.90;;;;;;5000034;28;20437;-49
2023/01/03 03:17:14;;;;;;;1.10;1.00;;;10.30;99.90;;;;;;4993054;28;20819;-48
2023/01/03 03:25:29;;;;;;;0.70;0.67;;;10.20;99.90;;;;;;4999640;28;20441;-47
2023/01/03 03:30:52;;;;;;;3.00;1.00;;;10.20;99.90;;;;;;4999252;28;20455;-47
2023/01/03 03:33:26;;;;;;;1.00;0.87;;;10.20;99.90;;;;;;4989681;28;20866;-48
2023/01/03 03:36:00;;;;;;;1.53;1.10;;;10.20;99.90;;;;;;4991408;28;20457;-48
2023/01/03 03:38:34;;;;;;;1.30;0.90;;;10.20;99.90;;;;;;4992938;28;20499;-46
2023/01/03 03:47:00;;;;;;;1.43;1.07;;;10.20;99.90;;;;;;4990923;28;20947;-47
2023/01/03 03:49:37;;;;;;;1.10;0.80;;;10.20;99.90;;;;;;5005803;28;21523;-48
2023/01/03 03:52:10;;;;;;;1.57;0.87;;;10.20;99.90;;;;;;4984782;28;20557;-47
2023/01/03 03:54:42;;;;;;;1.47;0.80;;;10.10;99.90;;;;;;5000588;28;20851;-48
2023/01/03 03:57:15;;;;;;;1.27;0.90;;;10.20;99.90;;;;;;4992076;28;20437;-46
2023/01/03 03:59:49;;;;;;;1.23;0.90;;;10.20;99.90;;;;;;4988334;28;20829;-47
2023/01/03 04:02:18;;;;;;;0.70;0.60;;;10.10;99.90;;;;;;4988799;28;20488;-46
2023/01/03 04:04:52;;;;;;;1.37;0.93;;;10.10;99.90;;;;;;4986463;28;20825;-47
2023/01/03 04:07:21;;;;;;;0.70;0.70;;;10.10;99.90;;;;;;4991464;28;20454;-47
2023/01/03 04:09:49;;;;;;;0.97;0.77;;;10.10;99.90;;;;;;4988586;28;20469;-48
2023/01/03 04:12:18;;;;;;;0.73;0.70;;;10.10;99.90;;;;;;4992224;28;20481;-47
2023/01/03 04:14:46;;;;;;;1.10;0.93;;;10.10;99.90;;;;;;4991573;28;20457;-48
2023/01/03 04:17:15;;;;;;;0.90;0.80;;;10.10;99.90;;;;;;5013341;28;20886;-46
2023/01/03 04:19:43;;;;;;;1.17;0.90;;;10.10;99.90;;;;;;4998274;28;20455;-46
2023/01/03 04:22:13;;;;;;;1.40;0.90;;;10.10;99.90;;;;;;4995475;28;20449;-47
2023/01/03 04:24:42;;;;;;;1.00;0.87;;;10.10;99.90;;;;;;4991800;28;20456;-48
2023/01/03 04:27:10;;;;;;;0.60;0.60;;;10.10;99.90;;;;;;4988509;28;20478;-47
2023/01/03 04:29:39;;;;;;;1.07;1.00;;;10.10;99.90;;;;;;4994035;28;20540;-48
2023/01/03 04:32:08;;;;;;;3.30;1.00;;;10.10;99.90;;;;;;5004231;28;20838;-47
2023/01/03 04:34:37;;;;;;;0.93;0.80;;;10.10;99.90;;;;;;4996187;28;20525;-47
2023/01/03 04:37:06;;;;;;;1.03;0.97;;;10.10;99.90;;;;;;5013917;28;20456;-48
2023/01/03 04:39:36;;;;;;;3.60;0.93;;;10.10;99.90;;;;;;5012696;28;20476;-48
2023/01/03 04:44:00;;;;;;;2.40;1.17;;;10.10;99.90;;;;;;4996558;28;20448;-48
2023/01/03 04:44:53;;;;;;;0.83;0.83;;;10.10;99.90;;;;;;5004466;28;20455;-47
2023/01/03 04:47:21;;;;;;;1.00;0.90;;;10.10;99.90;;;;;;4998554;28;20507;-47
2023/01/03 04:49:51;;;;;;;2.90;1.20;;;10.00;99.90;;;;;;4989648;28;20469;-47
2023/01/03 04:52:19;;;;;;;1.00;0.80;;;10.00;99.90;;;;;;4988278;28;20628;-47
2023/01/03 04:54:49;;;;;;;1.53;0.90;;;10.00;99.90;;;;;;4980013;28;20513;-49
2023/01/03 04:57:18;;;;;;;1.20;0.90;;;10.00;99.90;;;;;;4984162;28;20504;-47
2023/01/03 04:59:46;;;;;;;1.07;0.87;;;10.00;99.90;;;;;;4988536;28;20462;-48
2023/01/03 05:02:15;;;;;;;1.33;1.10;;;10.00;99.90;;;;;;4985776;28;20438;-48
2023/01/03 05:04:43;;;;;;;1.00;0.70;;;10.00;99.90;;;;;;4989912;28;20437;-47
2023/01/03 05:07:12;;;;;;;0.80;0.80;;;10.00;99.90;;;;;;4987954;28;20536;-48
2023/01/03 05:09:40;;;;;;;1.00;0.90;;;10.00;99.90;;;;;;4989583;28;20464;-47
2023/01/03 05:12:11;;;;;;;2.00;1.07;;;10.00;99.90;;;;;;4985085;28;20981;-48
2023/01/03 05:14:40;;;;;;;2.30;1.10;;;10.00;99.90;;;;;;4993701;28;20449;-47
2023/01/03 05:17:09;;;;;;;0.90;0.73;;;10.00;99.90;;;;;;4981908;28;20464;-47
2023/01/03 05:25:48;;;;;;;2.73;1.00;;;10.00;99.90;;;;;;5006216;28;20454;-47
2023/01/03 05:28:12;;;;;;;1.77;0.83;;;10.00;99.90;;;;;;4994446;28;20819;-46
2023/01/03 05:30:45;;;;;;;1.13;0.93;;;10.00;99.90;;;;;;5002757;28;21249;-48
2023/01/03 05:33:13;;;;;;;1.30;1.10;;;10.00;99.90;;;;;;4982643;28;20834;-46
2023/01/03 05:35:45;;;;;;;1.00;0.90;;;10.00;99.90;;;;;;4990784;28;20448;-47
2023/01/03 05:38:13;;;;;;;1.40;1.30;;;10.00;99.90;;;;;;4979946;28;20487;-47
2023/01/03 05:40:42;;;;;;;2.27;1.67;;;9.90;99.90;;;;;;5001097;28;20438;-48
2023/01/03 05:43:12;;;;;;;2.70;1.10;;;9.90;99.90;;;;;;4995001;28;21054;-46
2023/01/03 05:45:41;;;;;;;1.57;1.00;;;9.90;99.90;;;;;;4988352;28;20524;-48
2023/01/03 05:48:10;;;;;;;0.90;0.90;;;9.90;99.90;;;;;;4983485;28;20501;-49
2023/01/03 05:50:38;;;;;;;1.70;1.50;;;9.90;99.90;;;;;;5010178;28;20819;-46
2023/01/03 05:53:07;;;;;;;1.23;1.13;;;9.90;99.90;;;;;;4980038;28;20571;-48
2023/01/03 05:55:36;;;;;;;1.20;1.10;;;9.90;99.90;;;;;;5006080;28;20436;-47
2023/01/03 05:58:06;;;;;;;2.03;1.37;;;9.90;99.90;;;;;;4987067;28;20489;-47
2023/01/03 06:00:36;;;;;;;1.50;1.30;;;9.90;99.90;;;;;;4997020;28;20461;-48
2023/01/03 06:03:04;;;;;;;0.90;0.90;;;9.90;99.90;;;;;;4969325;28;20465;-48
2023/01/03 06:05:33;;;;;;;1.27;1.17;;;9.90;99.90;;;;;;4975802;28;20492;-46
2023/01/03 06:08:02;;;;;;;1.27;1.10;;;9.90;99.90;;;;;;4984198;28;20485;-47
2023/01/03 06:10:30;;;;;;;1.10;1.00;;;9.90;99.90;;;;;;4995522;28;20482;-49
2023/01/03 06:12:59;;;;;;;1.50;1.40;;;9.90;99.90;;;;;;4983132;28;20817;-47
2023/01/03 06:15:27;;;;;;;1.70;1.37;;;9.90;99.90;;;;;;4988121;28;20789;-47
2023/01/03 06:17:58;;;;;;;2.27;1.50;;;9.90;99.90;;;;;;4988893;28;20576;-47
2023/01/03 06:20:28;;;;;;;0.80;0.80;;;9.90;99.90;;;;;;4997846;28;20939;-48
2023/01/03 06:22:57;;;;;;;1.10;0.70;;;9.90;99.90;;;;;;4984947;28;20488;-48
2023/01/03 06:25:26;;;;;;;1.23;0.87;;;9.90;99.90;;;;;;4985850;28;20449;-48
2023/01/03 06:27:55;;;;;;;0.80;0.80;;;9.90;99.90;;;;;;4983663;28;20449;-47
2023/01/03 06:30:24;;;;;;;0.93;0.90;;;9.90;99.90;;;;;;4988287;28;20830;-48
2023/01/03 06:32:52;;;;;;;0.83;0.80;;;9.90;99.90;;;;;;4981344;28;20441;-48
2023/01/03 06:35:22;;;;;;;1.90;0.90;;;9.90;99.90;;;;;;4995097;28;20455;-47
2023/01/03 06:37:51;;;;;;;1.00;0.90;;;9.90;99.90;;;;;;4996193;28;20447;-47
2023/01/03 06:40:19;;;;;;;0.90;0.80;;;9.90;99.90;;;;;;4987248;28;20433;-46
2023/01/03 06:42:48;;;;;;;0.97;0.80;;;9.90;99.90;;;;;;4987973;28;20463;-47
2023/01/03 06:53:41;;;;;;;2.03;1.10;;;9.80;99.90;;;;;;4999220;28;20578;-48
2023/01/03 06:56:11;;;;;;;1.17;1.00;;;9.80;99.90;;;;;;4989891;28;20452;-47
2023/01/03 06:58:41;;;;;;;2.03;1.10;;;9.80;99.90;;;;;;4997543;28;20557;-46
2023/01/03 07:01:09;;;;;;;2.50;0.90;;;9.80;99.90;;;;;;4985111;28;20457;-47
2023/01/03 07:03:38;;;;;;;0.97;0.87;;;9.80;99.90;;;;;;4979045;28;20543;-47
2023/01/03 07:06:08;;;;;;;1.93;1.23;;;9.80;99.90;;;;;;4987626;28;20808;-48
2023/01/03 07:08:37;;;;;;;1.47;0.90;;;9.80;99.90;;;;;;5005434;28;20873;-47
2023/01/03 07:11:13;;;;;;;1.40;1.30;;;9.80;99.90;;;;;;4985102;28;20494;-46
2023/01/03 07:13:59;;;;;;;0.90;0.90;;;9.80;99.90;;;;;;4993490;28;20505;-46
2023/01/03 07:16:29;;;;;;;1.03;0.90;;;9.80;99.90;;;;;;4984286;28;20504;-46
2023/01/03 07:18:59;;;;;;;1.90;1.17;;;9.80;99.90;;;;;;5007751;28;20487;-46
2023/01/03 07:21:30;;;;;;;1.23;1.07;;;9.80;99.90;;;;;;4983657;28;20445;-46
2023/01/03 07:24:01;;;;;;;1.70;1.00;;;9.80;99.90;;;;;;4998729;28;20468;-46
2023/01/03 07:26:32;;;;;;;1.77;1.20;;;9.80;99.90;;;;;;5009032;28;20437;-46
2023/01/03 07:29:04;;;;;;;1.20;0.90;;;9.80;99.90;;;;;;4990668;28;20501;-46
2023/01/03 07:31:33;;;;;;;1.23;1.00;;;9.80;99.90;;;;;;4987402;28;20480;-46
2023/01/03 07:34:01;;;;;;;2.13;1.37;;;9.80;99.90;;;;;;4978917;28;20477;-48
2023/01/03 07:36:31;;;;;;;1.50;1.40;;;9.80;99.90;;;;;;4993302;28;20484;-47
2023/01/03 07:39:00;;;;;;;2.20;2.00;;;9.80;99.90;;;;;;4991532;28;20460;-47
2023/01/03 07:44:11;;;;;;;1.20;1.10;;;9.70;99.90;;;;;;4994117;28;20491;-47
2023/01/03 07:46:40;;;;;;;1.70;1.20;;;9.70;99.90;;;;;;4996941;28;20895;-47
2023/01/03 07:49:08;;;;;;;1.40;0.93;;;9.70;99.90;;;;;;4999108;28;20852;-46
2023/01/03 07:51:41;;;;;;;1.70;1.60;;;9.70;99.90;;;;;;4994047;28;20497;-47
2023/01/03 07:54:10;;;;;;;2.27;1.27;;;9.70;99.90;;;;;;4980066;28;20481;-47
2023/01/03 07:56:38;;;;;;;2.60;1.43;;;9.70;99.90;;;;;;4996149;28;20843;-46
2023/01/03 07:59:07;;;;;;;1.93;1.73;;;9.70;99.90;;;;;;4985171;28;21004;-47
2023/01/03 08:01:35;;;;;;;1.30;1.10;;;9.70;99.90;;;;;;5006370;28;20445;-47
2023/01/03 08:04:04;;;;;;;1.60;1.50;;;9.70;99.90;;;;;;4997607;28;20471;-49
2023/01/03 08:06:33;;;;;;;1.63;1.00;;;9.70;99.90;;;;;;4989117;28;21012;-47
2023/01/03 08:14:35;;;;;;;1.73;1.30;;;9.70;99.90;;;;;;5004623;28;20452;-47
2023/01/03 08:17:03;;;;;;;1.37;1.27;;;9.70;99.90;;;;;;4993725;28;20591;-46
2023/01/03 08:19:32;;;;;;;2.10;1.50;;;9.70;99.90;;;;;;5009851;28;20517;-48
2023/01/03 08:22:00;;;;;;;2.30;1.30;;;9.70;99.90;;;;;;4986608;28;20448;-47
2023/01/03 08:24:30;;;;;;;1.37;1.00;;;9.70;99.90;;;;;;4994687;28;20446;-47
2023/01/03 08:26:59;;;;;;;2.00;1.50;;;9.70;99.90;;;;;;4981858;28;20507;-47
2023/01/03 08:29:27;;;;;;;2.00;1.77;;;9.70;99.90;;;;;;5000637;28;21108;-47
2023/01/03 08:31:58;;;;;;;2.72;1.83;;;9.70;99.90;;;;;;4998945;28;20523;-48
2023/01/03 08:34:31;;;;;;;2.40;1.80;;;9.70;99.90;;;;;;5000003;28;20198;-47
2023/01/03 08:37:06;;;;;;;2.13;1.70;;;9.70;99.90;;;;;;5001684;28;21139;-46
2023/01/03 08:39:39;;;;;;;2.33;1.90;;;9.70;99.90;;;;;;4981945;28;20518;-46
2023/01/03 08:42:09;;;;;;;3.30;1.73;;;9.70;99.90;;;;;;4989817;28;20446;-47
2023/01/03 08:44:39;;;;;;;2.13;1.63;;;9.70;99.90;;;;;;4988801;28;20460;-47
2023/01/03 08:47:09;;;;;;;1.37;1.27;;;9.70;99.90;;;;;;4991684;28;20461;-46
2023/01/03 08:49:39;;;;;;;3.37;1.63;;;9.70;99.90;;;;;;4994843;28;20476;-48
2023/01/03 08:52:08;;;;;;;2.53;1.40;;;9.70;99.90;;;;;;4985304;28;20522;-49
2023/01/03 08:54:39;;;;;;;1.53;1.43;;;9.70;99.90;;;;;;4988820;28;20449;-47
2023/01/03 08:57:07;;;;;;;2.20;1.60;;;9.70;99.90;;;;;;4981730;28;20442;-48
2023/01/03 08:59:36;;;;;;;2.50;1.63;;;9.70;99.90;;;;;;4987589;28;20476;-46
2023/01/03 09:02:04;;;;;;;1.60;1.23;;;9.60;99.90;;;;;;4978433;28;20465;-47
2023/01/03 09:04:33;;;;;;;2.83;1.40;;;9.60;99.90;;;;;;4991307;28;20946;-46
2023/01/03 09:07:02;;;;;;;1.97;1.40;;;9.70;99.90;;;;;;4985689;28;21053;-47
2023/01/03 09:09:30;;;;;;;2.90;1.30;;;9.60;99.90;;;;;;5000600;28;20555;-47
2023/01/03 09:12:00;;;;;;;2.20;1.97;;;9.70;99.90;;;;;;4991573;28;20994;-46
2023/01/03 09:14:30;;;;;;;2.23;1.40;;;9.60;99.90;;;;;;4987508;28;20854;-47
2023/01/03 09:16:59;;;;;;;2.00;1.70;;;9.60;99.90;;;;;;4982665;28;20955;-45
2023/01/03 09:19:28;;;;;;;1.57;1.30;;;9.70;99.90;;;;;;4990062;28;20449;-46
2023/01/03 09:21:56;;;;;;;1.97;1.20;;;9.70;99.90;;;;;;4985408;28;20437;-46
2023/01/03 09:24:25;;;;;;;2.93;1.67;;;9.70;99.90;;;;;;4989591;28;20806;-47
2023/01/03 09:26:54;;;;;;;1.00;0.90;;;9.70;99.90;;;;;;4984027;28;20496;-46
2023/01/03 09:29:25;;;;;;;2.43;1.60;;;9.70;99.90;;;;;;4996321;28;20838;-47
2023/01/03 09:31:54;;;;;;;1.20;1.00;;;9.70;99.90;;;;;;4996984;28;21317;-46
2023/01/03 09:34:24;;;;;;;1.20;1.10;;;9.70;99.90;;;;;;4978758;28;20472;-46
2023/01/03 09:36:53;;;;;;;1.37;1.20;;;9.70;99.90;;;;;;4997933;28;20498;-45
2023/01/03 09:39:22;;;;;;;1.80;1.37;;;9.70;99.90;;;;;;4987375;28;20500;-46
2023/01/03 09:43:11;;;;;;;1.43;1.33;;;9.70;99.90;;;;;;4988771;28;20437;-47
2023/01/03 09:44:41;;;;;;;1.80;1.10;;;9.70;99.90;;;;;;4982690;28;20454;-47
2023/01/03 09:47:19;;;;;;;1.23;1.00;;;9.70;99.90;;;;;;4979537;28;20576;-47
2023/01/03 10:41:20;;;;;;;1.80;1.33;;;9.70;99.90;;;;;;5141565;27;20670;-46
2023/01/03 10:43:57;;;;;;;1.33;1.07;;;9.70;99.90;;;;;;5084601;28;20519;-45
2023/01/03 11:03:43;;;;;;;1.30;1.00;;;9.60;99.90;;;;;;5049065;28;20477;-45
2023/01/03 11:06:20;;;;;;;0.70;0.60;;;9.60;99.90;;;;;;5046010;28;20975;-45
2023/01/03 11:08:57;;;;;;;2.00;0.93;;;9.60;99.90;;;;;;5040550;28;20475;-46
2023/01/03 11:11:31;;;;;;;1.13;0.70;;;9.70;99.90;;;;;;5076242;28;20856;-46
2023/01/03 11:14:24;;;;;;;2.07;0.80;;;9.60;99.90;;;;;;5042471;28;20823;-45
2023/01/03 11:20:51;;;;;;;0.60;0.60;;;9.60;99.90;;;;;;5044098;28;20980;-46
2023/01/03 11:23:54;;;;;;;1.10;0.73;;;9.60;99.90;;;;;;5044070;28;20587;-46
2023/01/03 11:26:42;;;;;;;1.00;0.90;;;9.60;99.90;;;;;;5075710;28;20473;-45
2023/01/03 11:29:32;;;;;;;1.57;0.77;;;9.60;99.90;;;;;;5038237;28;20891;-45
2023/01/03 11:32:13;;;;;;;1.10;1.00;;;9.60;99.90;;;;;;5043744;28;20970;-45
2023/01/03 11:35:05;;;;;;;1.60;0.93;;;9.60;99.90;;;;;;5053620;28;20977;-45
2023/01/03 11:38:02;;;;;;;0.80;0.80;;;9.60;99.90;;;;;;5062508;28;20994;-46
2023/01/03 11:40:41;;;;;;;1.63;1.00;;;9.60;99.90;;;;;;5070231;28;20832;-46
2023/01/03 11:43:25;;;;;;;0.80;0.80;;;9.60;99.90;;;;;;5029308;28;20554;-46
2023/01/03 11:46:17;;;;;;;1.57;1.17;;;9.60;99.90;;;;;;5025560;28;20960;-45
2023/01/03 11:49:09;;;;;;;1.90;1.00;;;9.60;99.90;;;;;;5023097;28;20814;-46
2023/01/03 11:51:49;;;;;;;1.10;1.00;;;9.60;99.90;;;;;;5023927;28;20438;-46
2023/01/03 11:54:40;;;;;;;0.80;0.80;;;9.60;99.90;;;;;;5045376;28;20929;-45
2023/01/03 11:57:19;;;;;;;1.57;0.80;;;9.60;99.90;;;;;;5037632;28;20442;-45
2023/01/03 12:00:01;;;;;;;0.93;0.90;;;9.60;99.90;;;;;;5029585;28;20864;-45
2023/01/03 12:03:02;;;;;;;5.90;1.47;;;9.60;99.90;;;;;;5029192;28;20854;-47
2023/01/03 12:05:47;;;;;;;2.53;0.80;;;9.60;99.90;;;;;;5046147;28;20546;-46
2023/01/03 12:08:42;;;;;;;1.93;1.10;;;9.60;99.90;;;;;;5027897;28;20480;-45
2023/01/03 12:11:24;;;;;;;2.80;0.90;;;9.60;99.90;;;;;;5041856;28;20453;-45
2023/01/03 12:14:00;;;;;;;1.90;0.67;;;9.60;99.90;;;;;;5034109;28;20463;-47
2023/01/03 12:16:39;;;;;;;1.70;0.77;;;9.60;99.90;;;;;;5021958;28;20443;-46
2023/01/03 12:19:25;;;;;;;0.90;0.77;;;9.60;99.90;;;;;;5030546;28;20467;-47
2023/01/03 12:22:13;;;;;;;0.90;0.60;;;9.60;99.90;;;;;;5042942;28;20444;-45
2023/01/03 12:24:51;;;;;;;2.27;1.30;;;9.60;99.90;;;;;;5057042;28;20441;-46
2023/01/03 12:27:39;;;;;;;1.37;0.70;;;9.60;99.90;;;;;;5032232;28;21023;-45
2023/01/03 12:30:26;;;;;;;0.83;0.70;;;9.60;99.90;;;;;;5026277;28;20457;-45
2023/01/03 12:33:02;;;;;;;1.53;0.87;;;9.60;99.90;;;;;;5047270;28;20471;-45
2023/01/03 12:35:46;;;;;;;1.40;0.98;;;9.60;99.90;;;;;;5047507;28;20447;-46
2023/01/03 12:38:20;;;;;;;1.03;0.87;;;9.60;99.90;;;;;;5038800;28;20226;-46
2023/01/03 12:40:55;;;;;;;2.13;0.80;;;9.60;99.90;;;;;;5030021;28;20448;-46
2023/01/03 12:43:33;;;;;;;2.90;1.43;;;9.60;99.90;;;;;;5051477;28;20479;-46
2023/01/03 12:46:07;;;;;;;3.27;1.10;;;9.60;99.90;;;;;;5024744;28;20443;-47
2023/01/03 12:48:53;;;;;;;0.90;0.57;;;9.60;99.90;;;;;;5032232;28;20518;-47
2023/01/03 12:51:24;;;;;;;1.13;0.97;;;9.60;99.90;;;;;;5048644;28;20893;-49
2023/01/03 12:54:05;;;;;;;1.00;0.63;;;9.60;99.90;;;;;;5043120;28;21013;-46
2023/01/03 12:57:03;;;;;;;2.40;1.70;;;9.60;99.90;;;;;;5056778;28;20444;-45
2023/01/03 12:59:57;;;;;;;1.33;1.20;;;9.60;99.90;;;;;;5026539;28;20551;-47
2023/01/03 13:02:41;;;;;;;1.00;1.00;;;9.60;99.90;;;;;;5038253;28;20441;-46
2023/01/03 13:05:18;;;;;;;1.00;0.80;;;9.60;99.90;;;;;;5041847;28;20440;-48
2023/01/03 13:07:53;;;;;;;1.80;1.20;;;9.60;99.90;;;;;;5040699;28;20463;-45
2023/01/03 13:10:26;;;;;;;1.57;1.00;;;9.60;99.90;;;;;;5041743;28;20797;-46
2023/01/03 13:12:55;;;;;;;1.43;1.23;;;9.60;99.90;;;;;;5027099;28;20452;-47
2023/01/03 13:15:29;;;;;;;1.70;1.20;;;9.60;99.90;;;;;;5040237;28;20971;-46
2023/01/03 13:18:19;;;;;;;1.10;1.00;;;9.60;99.90;;;;;;5026359;28;20518;-45
2023/01/03 13:20:48;;;;;;;2.30;1.27;;;9.60;99.90;;;;;;5036637;28;20431;-46
2023/01/03 13:23:35;;;;;;;1.30;1.20;;;9.60;99.90;;;;;;5027304;28;20559;-46
2023/01/03 13:26:19;;;;;;;1.97;1.33;;;9.60;99.90;;;;;;5026282;28;21009;-46
2023/01/03 13:28:48;;;;;;;1.63;0.77;;;9.60;99.90;;;;;;5027291;28;20471;-46
2023/01/03 13:31:39;;;;;;;1.53;0.73;;;9.60;99.90;;;;;;5041039;28;20519;-46
2023/01/03 13:34:31;;;;;;;2.50;1.10;;;9.60;99.90;;;;;;5057019;28;20482;-46
2023/01/03 13:37:16;;;;;;;3.53;0.93;;;9.60;99.90;;;;;;5043207;28;20435;-47
2023/01/03 13:40:17;;;;;;;1.60;1.20;;;9.60;99.90;;;;;;5042150;28;20480;-46
2023/01/03 13:42:46;;;;;;;1.40;0.80;;;9.60;99.90;;;;;;5037517;28;20494;-46
2023/01/03 13:45:54;;;;;;;1.70;1.07;;;9.50;99.90;;;;;;5054828;28;20934;-46
2023/01/03 13:48:52;;;;;;;1.33;1.23;;;9.50;99.90;;;;;;5056982;28;20500;-45
2023/01/03 13:51:49;;;;;;;1.27;1.17;;;9.50;99.90;;;;;;5026603;28;20475;-45
2023/01/03 13:55:05;;;;;;;1.20;1.10;;;9.50;99.90;;;;;;5041865;28;20465;-47
2023/01/03 13:57:51;;;;;;;1.20;1.00;;;9.50;99.90;;;;;;5042503;28;20443;-46
2023/01/03 14:00:22;;;;;;;1.37;0.93;;;9.50;99.90;;;;;;5056653;28;20817;-46
2023/01/03 14:03:36;;;;;;;1.23;1.00;;;9.50;99.90;;;;;;5025415;28;20839;-45
2023/01/03 14:06:44;;;;;;;1.10;1.00;;;9.50;99.90;;;;;;5040426;28;20437;-46
2023/01/03 14:09:42;;;;;;;0.90;0.80;;;9.50;99.90;;;;;;5024809;28;20485;-45
2023/01/03 14:12:42;;;;;;;2.00;0.97;;;9.50;99.90;;;;;;5040310;28;20450;-45
2023/01/03 14:15:15;;;;;;;1.17;0.80;;;9.50;99.90;;;;;;5044086;28;20446;-45
2023/01/03 14:17:56;;;;;;;1.53;1.30;;;9.50;99.90;;;;;;5028016;28;20533;-46
2023/01/03 14:20:31;;;;;;;1.30;1.20;;;9.60;99.90;;;;;;5025964;28;20951;-47
2023/01/03 14:23:05;;;;;;;1.17;0.90;;;9.60;99.90;;;;;;5024891;28;20482;-46
2023/01/03 14:25:54;;;;;;;0.90;0.80;;;9.60;99.90;;;;;;5029837;28;20522;-45
2023/01/03 14:28:26;;;;;;;1.63;0.83;;;9.60;99.90;;;;;;5030027;28;21015;-45
2023/01/03 14:31:01;;;;;;;1.57;1.20;;;9.70;99.90;;;;;;5026224;28;20477;-47
2023/01/03 14:33:47;;;;;;;2.13;1.20;;;9.70;99.90;;;;;;5040829;28;20990;-47
2023/01/03 14:36:17;;;;;;;3.23;1.03;;;9.70;99.90;;;;;;5019900;28;20540;-47
2023/01/03 14:38:49;;;;;;;1.70;1.10;;;9.70;99.90;;;;;;5057685;28;20483;-45
2023/01/03 14:41:30;;;;;;;1.40;1.30;;;9.70;99.90;;;;;;5026181;28;20432;-45
2023/01/03 14:44:05;;;;;;;1.60;0.90;;;9.70;99.90;;;;;;5042511;28;20975;-45
2023/01/03 14:46:35;;;;;;;1.90;1.20;;;9.80;99.90;;;;;;5028545;28;20440;-46
2023/01/03 14:49:07;;;;;;;0.87;0.87;;;9.80;99.90;;;;;;5037809;28;20558;-46
2023/01/03 14:51:37;;;;;;;1.10;1.00;;;9.80;99.90;;;;;;5040608;28;20572;-47
2023/01/03 14:54:07;;;;;;;1.60;0.97;;;9.80;99.90;;;;;;5024678;28;20491;-47
2023/01/03 14:56:36;;;;;;;1.23;1.10;;;9.80;99.90;;;;;;5025290;28;20432;-46
2023/01/03 14:59:08;;;;;;;1.33;0.90;;;9.80;99.90;;;;;;5025225;28;21008;-47
2023/01/03 15:01:37;;;;;;;1.27;1.17;;;9.80;99.90;;;;;;5030153;28;20444;-46
2023/01/03 15:04:07;;;;;;;1.03;0.73;;;9.80;99.90;;;;;;5054049;28;20966;-45
2023/01/03 15:06:36;;;;;;;1.23;0.90;;;9.80;99.90;;;;;;5042538;28;20524;-45
2023/01/03 15:09:21;;;;;;;1.03;0.70;;;9.80;99.90;;;;;;5053788;28;20484;-46
2023/01/03 15:11:58;;;;;;;1.23;1.13;;;9.80;99.90;;;;;;5025912;28;20499;-45
2023/01/03 15:14:28;;;;;;;2.13;0.80;;;9.80;99.90;;;;;;5049706;28;20751;-48
2023/01/03 15:17:06;;;;;;;1.73;0.60;;;9.80;99.90;;;;;;5047749;28;20911;-46
2023/01/03 15:19:37;;;;;;;2.37;1.00;;;9.80;99.90;;;;;;5047696;28;20516;-47
2023/01/03 15:22:12;;;;;;;1.03;0.93;;;9.80;99.90;;;;;;5047514;28;20465;-47
2023/01/03 15:24:45;;;;;;;1.40;1.30;;;9.80;99.90;;;;;;5058499;28;20472;-46
2023/01/03 15:27:40;;;;;;;1.53;0.90;;;9.80;99.90;;;;;;5028648;28;20448;-47
2023/01/03 15:30:16;;;;;;;2.17;0.87;;;9.80;99.90;;;;;;5027944;28;20885;-46